Presque Isle, ME

7:22 PM EDT on May 26, 2017 (GMT -0400)
Northern Maine Regional At Presque Isle

Weather History for KPQI - December, 2012

Change the Weather History Date:

Sunday, December 2, 2012

  Actual Average Record
Temperature  
Mean Temperature 34 °F -  
Max Temperature 46 °F 31 °F 56 °F (1934)
Min Temperature 21 °F 16 °F -7 °F (1933)
Degree Days  
Heating Degree Days 32    
Moisture  
Dew Point 29 °F    
Average Humidity 81    
Maximum Humidity 93    
Minimum Humidity 54    
Precipitation  
Precipitation 0.15 in - - ()
Sea Level Pressure  
Sea Level Pressure 30.10 in    
Wind  
Wind Speed 11 mph (SSE)    
Max Wind Speed 20 mph    
Max Gust Speed 29 mph    
Visibility 8 miles    
Events      
Averages and records for this station are not official NWS values.
T = Trace of Precipitation, MM = Missing Value Source: NWS Daily Summary

Daily Weather History Graph

Daily Weather History Graph

Search for Another Location

Airport or City:

Trip Planner

Search our weather history database for the weather conditions in past years. The results will help you decide how hot, cold, wet, or windy it might be!

Date:

Astronomy

Dec. 02, 2012 Rise Set
Actual Time 6:57 AM EST 3:45 PM EST
Civil Twilight 6:23 AM EST 4:20 PM EST
Nautical Twilight 5:45 AM EST 4:58 PM EST
Astronomical Twilight 5:08 AM EST 5:34 PM EST
Moon 7:35 PM EST (12/2) 9:40 AM EST (12/2)
Length of Visible Light 9h 56m
Length of Day
8h 47m
Waning Gibbous, 86% of the Moon is Illuminated
Dec 2
Waning Gibbous
Dec 6
Last Quarter
Dec 13
New
Dec 20
First Quarter
Dec 28
Full

Hourly Weather History & Observations

Time (EST) Temp. Windchill Dew Point Humidity Pressure Visibility Wind Dir Wind Speed Gust Speed Precip Events Conditions
12:15 AM 21.2 °F 10.1 °F 6.8 °F 54% 30.44 in 10.0 mi SSE 10.4 mph - N/A   Overcast
12:35 AM 21.2 °F 9.5 °F 6.8 °F 54% 30.43 in 10.0 mi SSE 11.5 mph - N/A   Overcast
12:55 AM 21.2 °F 12.6 °F 6.8 °F 54% 30.42 in 10.0 mi SSE 6.9 mph - N/A   Overcast
1:15 AM 21.2 °F 10.9 °F 8.6 °F 58% 30.41 in 10.0 mi SSE 9.2 mph - N/A   Overcast
1:35 AM 21.2 °F 10.1 °F 8.6 °F 58% 30.41 in 10.0 mi SSE 10.4 mph - N/A   Overcast
1:55 AM 21.2 °F 10.1 °F 10.4 °F 63% 30.40 in 10.0 mi SSE 10.4 mph - N/A   Overcast
2:15 AM 21.2 °F 10.1 °F 10.4 °F 63% 30.39 in 10.0 mi SSE 10.4 mph - N/A   Overcast
2:35 AM 21.2 °F 9.5 °F 12.2 °F 68% 30.39 in 8.0 mi SSE 11.5 mph - N/A   Overcast
2:55 AM 21.2 °F 11.7 °F 12.2 °F 68% 30.37 in 9.0 mi SE 8.1 mph - N/A   Overcast
3:15 AM 21.2 °F 9.5 °F 14.0 °F 74% 30.36 in 9.0 mi SSE 11.5 mph - N/A   Overcast
3:35 AM 21.2 °F 10.1 °F 14.0 °F 74% 30.35 in 10.0 mi SSE 10.4 mph - N/A   Overcast
3:55 AM 21.2 °F 10.1 °F 15.8 °F 80% 30.34 in 9.0 mi SSE 10.4 mph - N/A   Overcast
4:15 AM 21.2 °F 10.1 °F 15.8 °F 80% 30.34 in 7.0 mi SSE 10.4 mph 16.1 mph N/A   Overcast
4:35 AM 21.2 °F 10.9 °F 15.8 °F 80% 30.33 in 7.0 mi SSE 9.2 mph 16.1 mph N/A   Overcast
4:55 AM 21.2 °F 10.9 °F 15.8 °F 80% 30.32 in 6.0 mi SSE 9.2 mph - N/A   Overcast
5:15 AM 23.0 °F 11.1 °F 15.8 °F 74% 30.31 in 3.0 mi SSE 12.7 mph - N/A   Overcast
5:55 AM 24.8 °F 14.6 °F 17.6 °F 74% 30.29 in 3.0 mi SSE 10.4 mph - N/A   Overcast
6:15 AM 24.8 °F 14.6 °F 19.4 °F 80% 30.29 in 3.0 mi SSE 10.4 mph - N/A   Overcast
6:35 AM 24.8 °F 14.0 °F 19.4 °F 80% 30.28 in 5.0 mi SSE 11.5 mph - N/A   Overcast
6:55 AM 24.8 °F 14.6 °F 19.4 °F 80% 30.27 in 3.0 mi SSE 10.4 mph - N/A   Overcast
7:15 AM 26.6 °F 18.2 °F 21.2 °F 80% 30.27 in 2.5 mi SSE 8.1 mph - N/A   Overcast
7:35 AM 26.6 °F 17.5 °F 21.2 °F 80% 30.26 in 3.0 mi SSE 9.2 mph - N/A   Overcast
7:55 AM 26.6 °F 17.5 °F 21.2 °F 80% 30.25 in 4.0 mi SSE 9.2 mph - N/A   Overcast
8:15 AM 26.6 °F 18.2 °F 21.2 °F 80% 30.24 in 10.0 mi SSE 8.1 mph - N/A   Overcast
8:35 AM 28.4 °F 18.0 °F 23.0 °F 80% 30.24 in 9.0 mi SSE 12.7 mph - N/A   Overcast
8:55 AM 28.4 °F 18.5 °F 23.0 °F 80% 30.23 in 10.0 mi SE 11.5 mph - N/A   Overcast
9:15 AM 28.4 °F 19.7 °F 24.8 °F 86% 30.23 in 7.0 mi SSE 9.2 mph - N/A   Overcast
9:35 AM 30.2 °F 20.2 °F 24.8 °F 80% 30.22 in 10.0 mi SSE 12.7 mph - N/A   Overcast
9:55 AM 30.2 °F 21.3 °F 24.8 °F 80% 30.21 in 10.0 mi SSE 10.4 mph 18.4 mph N/A   Overcast
10:15 AM 30.2 °F 20.2 °F 26.6 °F 86% 30.20 in 10.0 mi SSE 12.7 mph - N/A   Overcast
10:35 AM 30.2 °F 21.3 °F 26.6 °F 86% 30.18 in 10.0 mi SSE 10.4 mph - N/A   Overcast
10:55 AM 32.0 °F 23.6 °F 28.4 °F 87% 30.17 in 9.0 mi SSE 10.4 mph - N/A   Overcast
11:15 AM 32.0 °F 24.2 °F 28.4 °F 87% 30.15 in 9.0 mi SSE 9.2 mph - N/A   Overcast
11:35 AM 33.8 °F 25.8 °F 30.2 °F 87% 30.13 in 10.0 mi SSE 10.4 mph - 0.01 in   Overcast
11:55 AM 33.8 °F 25.8 °F 30.2 °F 87% 30.12 in 10.0 mi SSE 10.4 mph - 0.01 in   Overcast
12:15 PM 33.8 °F 26.4 °F 30.2 °F 87% 30.10 in 9.0 mi SSE 9.2 mph - N/A   Overcast
12:35 PM 33.8 °F 26.4 °F 30.2 °F 87% 30.09 in 10.0 mi SSE 9.2 mph - N/A   Overcast
12:55 PM 35.6 °F 29.2 °F 30.2 °F 81% 30.08 in 10.0 mi SSE 8.1 mph - N/A   Overcast
1:15 PM 35.6 °F 28.6 °F 32.0 °F 87% 30.06 in 10.0 mi SSE 9.2 mph - N/A   Overcast
1:35 PM 35.6 °F 29.9 °F 32.0 °F 87% 30.05 in 9.0 mi SSE 6.9 mph - N/A   Overcast
1:55 PM 35.6 °F 29.9 °F 32.0 °F 87% 30.04 in 7.0 mi SSE 6.9 mph - N/A   Overcast
2:15 PM 35.6 °F 30.7 °F 32.0 °F 87% 30.03 in 6.0 mi South 5.8 mph - N/A   Overcast
2:35 PM 35.6 °F 31.7 °F 33.8 °F 93% 30.02 in 5.0 mi South 4.6 mph - N/A   Overcast
2:55 PM 35.6 °F 31.7 °F 33.8 °F 93% 30.00 in 3.0 mi South 4.6 mph - N/A   Overcast
3:15 PM 35.6 °F 32.8 °F 33.8 °F 93% 29.99 in 3.0 mi South 3.5 mph - N/A   Overcast
3:35 PM 37.4 °F 32.8 °F 35.6 °F 93% 29.98 in 9.0 mi SSE 5.8 mph - N/A   Overcast
3:55 PM 39.2 °F 31.6 °F 37.4 °F 93% 29.96 in 10.0 mi South 12.7 mph - N/A   Overcast
4:15 PM 42.8 °F 34.8 °F 39.2 °F 87% 29.95 in 10.0 mi South 17.3 mph - N/A   Overcast
4:35 PM 42.8 °F 35.1 °F 39.2 °F 87% 29.95 in 10.0 mi South 16.1 mph 21.9 mph N/A   Overcast
4:55 PM 44.6 °F 37.4 °F 41.0 °F 87% 29.94 in 10.0 mi South 16.1 mph 25.3 mph N/A   Overcast
5:15 PM 44.6 °F 37.8 °F 41.0 °F 87% 29.92 in 10.0 mi South 15.0 mph 26.5 mph N/A   Overcast
5:35 PM 46.4 °F 39.0 °F 41.0 °F 81% 29.91 in 10.0 mi South 19.6 mph 27.6 mph N/A   Overcast
5:55 PM 46.4 °F 39.2 °F 41.0 °F 81% 29.90 in 10.0 mi South 18.4 mph 28.8 mph N/A   Overcast
6:15 PM 46.4 °F 39.2 °F 41.0 °F 81% 29.89 in 10.0 mi South 18.4 mph 26.5 mph N/A   Overcast
6:35 PM 46.4 °F 40.4 °F 42.8 °F 87% 29.89 in 10.0 mi South 13.8 mph 23.0 mph N/A   Overcast
6:55 PM 46.4 °F 39.2 °F 42.8 °F 87% 29.88 in 10.0 mi South 18.4 mph 25.3 mph 0.01 in   Overcast
7:15 PM 46.4 °F 39.5 °F 42.8 °F 87% 29.87 in 8.0 mi South 17.3 mph 26.5 mph N/A   Overcast
7:35 PM 46.4 °F 40.1 °F 42.8 °F 87% 29.86 in 10.0 mi South 15.0 mph 20.7 mph 0.01 in   Overcast
7:55 PM 46.4 °F 40.1 °F 42.8 °F 87% 29.85 in 10.0 mi South 15.0 mph 23.0 mph 0.02 in   Overcast
8:15 PM 46.4 °F 40.1 °F 42.8 °F 87% 29.84 in 10.0 mi South 15.0 mph 21.9 mph 0.01 in   Overcast
8:35 PM 46.4 °F 40.4 °F 42.8 °F 87% 29.83 in 9.0 mi South 13.8 mph 20.7 mph 0.02 in   Overcast
8:55 PM 46.4 °F 40.4 °F 42.8 °F 87% 29.81 in 9.0 mi South 13.8 mph - 0.03 in   Overcast
9:15 PM 46.4 °F 40.7 °F 42.8 °F 87% 29.80 in 10.0 mi South 12.7 mph - 0.03 in   Overcast
9:35 PM 46.4 °F 39.5 °F 42.8 °F 87% 29.79 in 5.0 mi SSW 17.3 mph 24.2 mph 0.05 in   Overcast
9:55 PM 46.4 °F 40.1 °F 42.8 °F 87% 29.78 in 10.0 mi SSW 15.0 mph - 0.06 in   Overcast
10:15 PM 46.4 °F 40.7 °F 42.8 °F 87% 29.78 in 10.0 mi SSW 12.7 mph 21.9 mph 0.01 in   Overcast
10:35 PM 44.6 °F 39.2 °F 42.8 °F 93% 29.77 in 10.0 mi SSW 10.4 mph - 0.02 in   Overcast
11:15 PM 44.6 °F 40.2 °F 41.0 °F 87% 29.76 in 10.0 mi SSW 8.1 mph - N/A   Overcast
11:35 PM 44.6 °F 39.7 °F 41.0 °F 87% 29.76 in 10.0 mi SSW 9.2 mph - N/A   Overcast
11:55 PM 44.6 °F 40.2 °F 41.0 °F 87% 29.75 in 10.0 mi SSW 8.1 mph - N/A   Overcast